Time;durP1;ratioP1;P1;durP2;ratioP2;P2;SDS_P1;SDS_P2;PMS_P1;PMS_P2;Temp;Humidity;BMP_temperature;BMP_pressure;BME280_temperature;BME280_humidity;BME280_pressure;Samples;Min_cycle;Max_cycle;Signal;HPM_P1;HPM_P2
2022/12/11 00:00:39;;;;;;;40.47;17.53;;;1.60;99.90;;;;;;4995896;28;20215;-81
2022/12/11 00:03:07;;;;;;;41.42;20.27;;;1.50;99.90;;;;;;5013273;28;20428;-82
2022/12/11 00:05:34;;;;;;;37.58;20.13;;;1.50;99.90;;;;;;4996111;28;20227;-83
2022/12/11 00:08:01;;;;;;;36.63;16.80;;;1.50;99.90;;;;;;5011856;28;20218;-81
2022/12/11 00:10:28;;;;;;;37.00;17.97;;;1.50;99.90;;;;;;5015695;28;20202;-82
2022/12/11 00:12:55;;;;;;;48.58;19.52;;;1.50;99.90;;;;;;5015574;28;20453;-82
2022/12/11 00:15:22;;;;;;;36.10;15.43;;;1.40;99.90;;;;;;5015344;28;20233;-82
2022/12/11 00:17:48;;;;;;;41.85;18.60;;;1.50;99.90;;;;;;5014976;28;20313;-80
2022/12/11 00:20:17;;;;;;;36.30;18.45;;;1.50;99.90;;;;;;5009302;28;20227;-81
2022/12/11 00:22:44;;;;;;;35.50;16.30;;;1.40;99.90;;;;;;4996938;28;20206;-82
2022/12/11 00:25:10;;;;;;;41.60;16.15;;;1.50;99.90;;;;;;5004309;28;20224;-82
2022/12/11 00:27:37;;;;;;;35.22;16.02;;;1.50;99.90;;;;;;5016277;28;20217;-81
2022/12/11 00:30:05;;;;;;;30.27;15.02;;;1.50;99.90;;;;;;4992961;28;20195;-82
2022/12/11 00:32:33;;;;;;;36.97;16.58;;;1.30;99.90;;;;;;4997306;28;20211;-82
2022/12/11 00:34:59;;;;;;;39.83;17.67;;;1.30;99.90;;;;;;5016528;28;20233;-82
2022/12/11 00:37:28;;;;;;;39.58;18.70;;;1.40;99.90;;;;;;5024922;28;20258;-81
2022/12/11 00:39:55;;;;;;;38.35;17.40;;;1.40;99.90;;;;;;5034436;28;20283;-82
2022/12/11 00:42:21;;;;;;;36.25;15.32;;;1.40;99.90;;;;;;5037110;28;20293;-82
2022/12/11 00:44:48;;;;;;;36.10;19.35;;;1.40;99.90;;;;;;5015673;28;20213;-82
2022/12/11 00:47:15;;;;;;;38.60;16.88;;;1.50;99.90;;;;;;5017687;28;20215;-82
2022/12/11 00:49:42;;;;;;;51.80;17.90;;;1.40;99.90;;;;;;5017640;28;20196;-83
2022/12/11 00:52:09;;;;;;;37.90;15.88;;;1.40;99.90;;;;;;5017771;28;20210;-83
2022/12/11 00:54:37;;;;;;;47.90;17.48;;;1.40;99.90;;;;;;5004746;28;20209;-82
2022/12/11 00:57:04;;;;;;;45.33;17.65;;;1.50;99.90;;;;;;4998547;28;20199;-81
2022/12/11 00:59:31;;;;;;;42.65;18.73;;;1.50;99.90;;;;;;4997435;28;20290;-82
2022/12/11 01:01:58;;;;;;;52.77;20.90;;;1.60;99.90;;;;;;4999405;28;20218;-82
2022/12/11 01:04:25;;;;;;;42.30;17.20;;;1.60;99.90;;;;;;5016066;28;20831;-80
2022/12/11 01:06:51;;;;;;;43.42;18.92;;;1.60;99.90;;;;;;5000274;28;20234;-82
2022/12/11 01:12:04;;;;;;;49.65;21.95;;;1.60;99.90;;;;;;5000207;28;20253;-82
2022/12/11 01:14:31;;;;;;;39.40;18.23;;;1.60;99.90;;;;;;5015103;28;20209;-82
2022/12/11 01:16:58;;;;;;;52.08;20.90;;;1.70;99.90;;;;;;4980400;28;20220;-82
2022/12/11 01:19:24;;;;;;;45.97;19.70;;;1.60;99.90;;;;;;5008291;28;20223;-81
2022/12/11 01:21:51;;;;;;;52.42;21.23;;;1.60;99.90;;;;;;5020025;28;20515;-81
2022/12/11 01:24:18;;;;;;;47.50;18.00;;;1.70;99.90;;;;;;5018640;28;20750;-82
2022/12/11 01:26:45;;;;;;;57.25;21.80;;;1.80;99.90;;;;;;5010991;28;20219;-81
2022/12/11 01:29:13;;;;;;;46.72;21.23;;;1.80;99.90;;;;;;5013304;28;20195;-81
2022/12/11 01:31:40;;;;;;;57.83;21.20;;;1.70;99.90;;;;;;5018525;28;20234;-82
2022/12/11 01:34:07;;;;;;;46.65;20.10;;;1.70;99.90;;;;;;5018391;28;20592;-81
2022/12/11 01:36:33;;;;;;;52.38;19.42;;;1.70;99.90;;;;;;5018579;28;20230;-81
2022/12/11 01:39:00;;;;;;;51.40;19.85;;;1.70;99.90;;;;;;5017460;28;20230;-82
2022/12/11 01:41:27;;;;;;;49.92;20.50;;;1.70;99.90;;;;;;5018359;28;20209;-82
2022/12/11 01:44:00;;;;;;;54.13;21.58;;;1.70;99.90;;;;;;5005727;28;20229;-82
2022/12/11 01:46:29;;;;;;;58.10;23.23;;;1.60;99.90;;;;;;5016547;28;20240;-82
2022/12/11 01:48:57;;;;;;;67.40;22.13;;;1.60;99.90;;;;;;5017107;28;20210;-82
2022/12/11 01:51:24;;;;;;;56.05;23.05;;;1.60;99.90;;;;;;5018417;28;20210;-82
2022/12/11 01:53:58;;;;;;;70.65;25.63;;;1.70;99.90;;;;;;5018231;28;20206;-82
2022/12/11 01:56:25;;;;;;;55.05;23.30;;;1.60;99.90;;;;;;5011160;28;20226;-83
2022/12/11 01:58:56;;;;;;;80.75;25.58;;;1.50;99.90;;;;;;5012855;28;20747;-82
2022/12/11 02:01:28;;;;;;;74.68;25.38;;;1.50;99.90;;;;;;5026723;28;20208;-82
2022/12/11 02:03:57;;;;;;;67.18;24.13;;;1.40;99.90;;;;;;5014235;28;20215;-82
2022/12/11 02:06:32;;;;;;;66.18;24.27;;;1.40;99.90;;;;;;5035087;28;20290;-81
2022/12/11 02:08:59;;;;;;;63.50;22.92;;;1.50;99.90;;;;;;5034216;28;20995;-81
2022/12/11 02:11:34;;;;;;;65.20;24.50;;;1.60;99.90;;;;;;5034769;28;20259;-81
2022/12/11 02:14:08;;;;;;;61.35;22.80;;;1.60;99.90;;;;;;5033549;28;20212;-82
2022/12/11 02:16:44;;;;;;;56.90;23.15;;;1.60;99.90;;;;;;5002273;28;20237;-82
2022/12/11 02:19:28;;;;;;;57.70;21.10;;;1.60;99.90;;;;;;5007949;28;20214;-82
2022/12/11 02:21:56;;;;;;;69.20;23.25;;;1.60;99.90;;;;;;5017609;28;20211;-82
2022/12/11 02:24:33;;;;;;;63.15;20.58;;;1.70;99.90;;;;;;5017460;28;20202;-82
2022/12/11 02:27:14;;;;;;;59.88;22.13;;;1.70;99.90;;;;;;5017950;28;20268;-81
2022/12/11 02:29:50;;;;;;;68.65;21.38;;;1.70;99.90;;;;;;5016000;28;20207;-82
2022/12/11 02:32:21;;;;;;;55.47;21.83;;;1.70;99.90;;;;;;5017155;28;20193;-82
2022/12/11 02:34:55;;;;;;;60.78;22.77;;;1.60;99.90;;;;;;5018063;28;20221;-82
2022/12/11 02:37:27;;;;;;;64.25;22.20;;;1.70;99.90;;;;;;5017128;28;20209;-82
2022/12/11 02:39:56;;;;;;;67.32;25.38;;;1.60;99.90;;;;;;5016508;28;20228;-82
2022/12/11 02:42:26;;;;;;;75.65;25.77;;;1.60;99.90;;;;;;5006604;28;20210;-82
2022/12/11 02:44:56;;;;;;;75.55;25.20;;;1.60;99.90;;;;;;4997310;28;20213;-82
2022/12/11 02:47:25;;;;;;;83.70;26.60;;;1.70;99.90;;;;;;5012602;28;20202;-82
2022/12/11 02:49:55;;;;;;;69.57;26.30;;;1.70;99.90;;;;;;5016483;28;20203;-81
2022/12/11 02:52:25;;;;;;;56.35;22.80;;;1.70;99.90;;;;;;5016501;28;20273;-82
2022/12/11 02:54:55;;;;;;;58.67;21.37;;;1.70;99.90;;;;;;5016967;28;20208;-81
2022/12/11 02:57:27;;;;;;;56.95;22.33;;;1.80;99.90;;;;;;5016290;28;20454;-82
2022/12/11 02:59:55;;;;;;;49.70;20.98;;;1.70;99.90;;;;;;5003867;28;20233;-81
2022/12/11 03:02:22;;;;;;;49.85;20.33;;;1.80;99.90;;;;;;5015755;28;20637;-82
2022/12/11 03:04:49;;;;;;;53.35;23.13;;;1.80;99.90;;;;;;5016402;28;20207;-82
2022/12/11 03:07:23;;;;;;;55.53;20.77;;;1.90;99.90;;;;;;5016198;28;20206;-82
2022/12/11 03:09:51;;;;;;;46.53;18.35;;;1.90;99.90;;;;;;5015374;28;20242;-82
2022/12/11 03:12:21;;;;;;;49.80;21.10;;;2.00;99.90;;;;;;5016263;28;20597;-82
2022/12/11 03:14:49;;;;;;;41.17;16.35;;;2.00;99.90;;;;;;5008335;28;20672;-81
2022/12/11 03:17:19;;;;;;;37.20;17.40;;;1.90;99.90;;;;;;4997136;28;20726;-82
2022/12/11 03:19:52;;;;;;;41.20;17.77;;;1.80;99.90;;;;;;5008659;28;20477;-82
2022/12/11 03:22:26;;;;;;;44.45;18.08;;;1.90;99.90;;;;;;5017028;28;20662;-80
2022/12/11 03:25:00;;;;;;;39.42;17.60;;;1.90;99.90;;;;;;5016749;28;20199;-81
2022/12/11 03:27:30;;;;;;;36.22;18.30;;;1.90;99.90;;;;;;5017856;28;20194;-82
2022/12/11 03:30:02;;;;;;;42.13;17.80;;;1.80;99.90;;;;;;5016487;28;20297;-82
2022/12/11 03:32:35;;;;;;;34.40;16.55;;;1.80;99.90;;;;;;4999702;28;20683;-81
2022/12/11 03:35:08;;;;;;;37.03;17.00;;;1.80;99.90;;;;;;5015818;28;20235;-81
2022/12/11 03:37:39;;;;;;;37.30;17.48;;;1.70;99.90;;;;;;5017066;28;20304;-82
2022/12/11 03:40:10;;;;;;;40.13;18.13;;;1.60;99.90;;;;;;5016247;28;20252;-82
2022/12/11 03:42:38;;;;;;;41.13;17.30;;;1.60;99.90;;;;;;5017207;28;20640;-82
2022/12/11 03:45:07;;;;;;;38.53;15.50;;;1.70;99.90;;;;;;5016321;28;20491;-82
2022/12/11 03:47:37;;;;;;;36.88;16.80;;;1.70;99.90;;;;;;5011909;28;20195;-81
2022/12/11 03:50:07;;;;;;;43.40;16.88;;;1.60;99.90;;;;;;5012903;28;20674;-82
2022/12/11 03:52:35;;;;;;;39.95;16.85;;;1.60;99.90;;;;;;5016338;28;20215;-82
2022/12/11 03:55:06;;;;;;;42.50;17.88;;;1.60;99.90;;;;;;5016709;28;20228;-82
2022/12/11 03:57:36;;;;;;;41.45;18.85;;;1.60;99.90;;;;;;5016595;28;20676;-83
2022/12/11 04:00:04;;;;;;;45.50;17.95;;;1.60;99.90;;;;;;5015501;28;20309;-82
2022/12/11 04:02:31;;;;;;;43.90;18.67;;;1.70;99.90;;;;;;5016483;28;20214;-81
2022/12/11 04:04:59;;;;;;;47.55;17.10;;;1.70;99.90;;;;;;5004221;28;21069;-81
2022/12/11 04:07:27;;;;;;;34.30;15.03;;;1.70;99.90;;;;;;4996115;28;20200;-81
2022/12/11 04:09:54;;;;;;;33.92;16.17;;;1.70;99.90;;;;;;4996213;28;20857;-82
2022/12/11 04:12:21;;;;;;;32.30;15.93;;;1.70;99.90;;;;;;5000143;28;20208;-83
2022/12/11 04:15:02;;;;;;;35.28;15.93;;;1.80;99.90;;;;;;5009091;28;20694;-82
2022/12/11 04:25:43;;;;;;;32.90;16.55;;;1.80;99.90;;;;;;4996887;28;20614;-82
2022/12/11 04:28:10;;;;;;;32.47;13.85;;;1.80;99.90;;;;;;4997257;28;20210;-83
2022/12/11 04:30:37;;;;;;;35.20;15.85;;;1.80;99.90;;;;;;4997547;28;20268;-83
2022/12/11 04:33:04;;;;;;;36.40;16.77;;;1.90;99.90;;;;;;5010730;28;20207;-81
2022/12/11 04:35:32;;;;;;;36.63;15.77;;;1.90;99.90;;;;;;5017803;28;20537;-82
2022/12/11 04:37:59;;;;;;;33.23;15.90;;;1.90;99.90;;;;;;5030254;28;20542;-81
2022/12/11 04:40:26;;;;;;;31.13;15.80;;;1.90;99.90;;;;;;5017190;28;20493;-82
2022/12/11 04:42:53;;;;;;;34.72;14.77;;;1.90;99.90;;;;;;5016450;28;21043;-82
2022/12/11 04:45:20;;;;;;;37.45;17.55;;;1.90;99.90;;;;;;5023036;23;20222;-83
2022/12/11 04:47:47;;;;;;;35.60;16.67;;;1.80;99.90;;;;;;5010310;28;20218;-83
2022/12/11 04:50:14;;;;;;;36.75;15.07;;;1.90;99.90;;;;;;5014941;28;20790;-80
2022/12/11 04:52:43;;;;;;;33.42;14.32;;;1.90;99.90;;;;;;5013526;28;20217;-80
2022/12/11 04:55:10;;;;;;;30.70;14.07;;;2.00;99.90;;;;;;5014312;28;20209;-81
2022/12/11 04:57:37;;;;;;;39.97;17.02;;;2.00;99.90;;;;;;5014281;28;20213;-80
2022/12/11 05:00:10;;;;;;;39.55;16.08;;;2.00;99.90;;;;;;5012730;28;20714;-79
2022/12/11 05:02:38;;;;;;;36.57;16.20;;;2.00;99.90;;;;;;4992299;28;20695;-80
2022/12/11 05:05:05;;;;;;;39.00;14.57;;;2.00;99.90;;;;;;4994666;28;20436;-80
2022/12/11 05:07:32;;;;;;;35.37;16.17;;;2.00;99.90;;;;;;4993868;28;20478;-81
2022/12/11 05:10:01;;;;;;;30.77;14.93;;;2.00;99.90;;;;;;5004762;28;20460;-81
2022/12/11 05:12:28;;;;;;;29.47;14.93;;;2.00;99.90;;;;;;4973046;28;20453;-80
2022/12/11 05:14:55;;;;;;;37.33;16.10;;;1.90;99.90;;;;;;4982160;28;20890;-81
2022/12/11 05:17:22;;;;;;;37.97;15.10;;;1.90;99.90;;;;;;4993219;28;20481;-81
2022/12/11 05:19:49;;;;;;;28.70;14.83;;;2.00;99.90;;;;;;4993597;28;20477;-81
2022/12/11 05:22:17;;;;;;;41.73;15.77;;;2.00;99.90;;;;;;4996590;28;20454;-80
2022/12/11 05:24:44;;;;;;;37.87;17.50;;;2.00;99.90;;;;;;4998119;28;20450;-81
2022/12/11 05:27:13;;;;;;;41.25;16.00;;;2.00;99.90;;;;;;4997385;28;20840;-81
2022/12/11 05:29:39;;;;;;;38.10;16.90;;;2.10;99.90;;;;;;4997047;28;20207;-80
2022/12/11 05:32:07;;;;;;;33.78;16.95;;;2.00;99.90;;;;;;4997001;28;20442;-81
2022/12/11 05:34:34;;;;;;;28.50;14.83;;;2.00;99.90;;;;;;4998677;28;20579;-81
2022/12/11 05:37:01;;;;;;;29.60;14.13;;;2.10;99.90;;;;;;4996997;28;20470;-81
2022/12/11 05:39:28;;;;;;;36.60;15.20;;;2.10;99.90;;;;;;5007049;28;20449;-80
2022/12/11 05:41:55;;;;;;;34.63;14.93;;;2.10;99.90;;;;;;5017554;28;20489;-81
2022/12/11 05:44:23;;;;;;;32.28;16.02;;;2.20;99.90;;;;;;5020819;28;20459;-81
2022/12/11 05:46:50;;;;;;;32.87;15.67;;;2.20;99.90;;;;;;5014433;28;20258;-80
2022/12/11 05:49:17;;;;;;;35.97;16.40;;;2.20;99.90;;;;;;5011196;28;20513;-81
2022/12/11 05:51:44;;;;;;;34.50;15.63;;;2.10;99.90;;;;;;5025364;28;20297;-81
2022/12/11 05:54:11;;;;;;;37.87;17.30;;;2.10;99.90;;;;;;5020014;28;20458;-82
2022/12/11 05:56:38;;;;;;;36.85;16.50;;;2.20;99.90;;;;;;5006046;28;20498;-81
2022/12/11 05:59:06;;;;;;;38.33;16.80;;;2.20;99.90;;;;;;5014165;28;20245;-81
2022/12/11 06:01:36;;;;;;;38.28;16.08;;;2.20;99.90;;;;;;5023004;28;20226;-81
2022/12/11 06:04:05;;;;;;;33.50;16.27;;;2.20;99.90;;;;;;5006416;28;20195;-80
2022/12/11 06:06:32;;;;;;;32.03;16.93;;;2.20;99.90;;;;;;5005957;28;20474;-81
2022/12/11 06:09:00;;;;;;;30.00;14.70;;;2.30;99.90;;;;;;5004848;28;20482;-82
2022/12/11 06:11:29;;;;;;;36.03;15.00;;;2.20;99.90;;;;;;5005028;28;20458;-81
2022/12/11 06:13:57;;;;;;;32.40;15.43;;;2.20;99.90;;;;;;5023061;28;20489;-81
2022/12/11 06:16:24;;;;;;;30.55;14.50;;;2.20;99.90;;;;;;5018251;28;20843;-81
2022/12/11 06:18:53;;;;;;;35.17;16.88;;;2.20;99.90;;;;;;5018676;28;20213;-81
2022/12/11 06:21:28;;;;;;;33.60;15.10;;;2.30;99.90;;;;;;5012493;28;20223;-81
2022/12/11 06:29:59;;;;;;;36.33;14.90;;;2.20;99.90;;;;;;5001962;28;20521;-82
2022/12/11 06:32:48;;;;;;;35.92;16.35;;;2.40;99.90;;;;;;5017433;28;20453;-81
2022/12/11 06:36:00;;;;;;;28.77;13.87;;;2.20;99.90;;;;;;4992493;28;20207;-81
2022/12/11 06:38:43;;;;;;;26.75;13.50;;;2.30;99.90;;;;;;4990760;28;20977;-81
2022/12/11 06:41:33;;;;;;;31.00;14.00;;;2.30;99.90;;;;;;5020752;28;20218;-82
2022/12/11 06:44:05;;;;;;;30.90;13.90;;;2.40;99.90;;;;;;4963996;28;20205;-81
2022/12/11 06:46:44;;;;;;;31.13;15.43;;;2.10;99.90;;;;;;4964826;28;20607;-81
2022/12/11 06:49:17;;;;;;;32.77;14.43;;;2.10;99.90;;;;;;4950764;29;20201;-80
2022/12/11 06:52:15;;;;;;;31.13;15.35;;;2.20;99.90;;;;;;4939013;29;20517;-80
2022/12/11 06:55:02;;;;;;;28.83;12.43;;;2.10;99.90;;;;;;4930619;29;20335;-80
2022/12/11 06:57:51;;;;;;;;;;;;;;;;;;;;;
2022/12/11 07:00:23;;;;;;;28.30;14.00;;;2.30;99.90;;;;;;4957704;29;20539;-80
2022/12/11 07:03:07;;;;;;;35.83;14.90;;;2.40;99.90;;;;;;5018677;28;20517;-80
2022/12/11 07:05:54;;;;;;;29.27;13.35;;;2.30;99.90;;;;;;5018855;28;20477;-80
2022/12/11 07:08:27;;;;;;;28.20;14.70;;;2.20;99.90;;;;;;5002092;28;20199;-80
2022/12/11 07:14:03;;;;;;;33.80;14.83;;;2.20;99.90;;;;;;5015040;28;20466;-79
2022/12/11 07:16:46;;;;;;;30.00;14.15;;;2.20;99.90;;;;;;5010212;28;20466;-80
2022/12/11 07:19:34;;;;;;;28.53;14.30;;;2.30;99.90;;;;;;5012513;28;20234;-79
2022/12/11 07:22:19;;;;;;;32.65;14.00;;;2.20;99.90;;;;;;5010646;28;20514;-80
2022/12/11 07:25:12;;;;;;;31.92;15.82;;;2.20;99.90;;;;;;5001325;28;20211;-80
2022/12/11 07:28:00;;;;;;;30.33;14.40;;;2.10;99.90;;;;;;5018304;28;20286;-79
2022/12/11 07:30:49;;;;;;;28.33;14.23;;;2.20;99.90;;;;;;5016430;28;20493;-80
2022/12/11 07:33:21;;;;;;;26.08;13.18;;;2.30;99.90;;;;;;4997425;28;20215;-79
2022/12/11 07:36:28;;;;;;;;;;;;;;;;;;;;;
2022/12/11 07:39:04;;;;;;;28.87;14.67;;;2.40;99.90;;;;;;4998451;28;20541;-80
2022/12/11 07:41:59;;;;;;;28.20;13.20;;;2.30;99.90;;;;;;4998226;28;20546;-80
2022/12/11 07:44:56;;;;;;;27.73;13.43;;;2.30;99.90;;;;;;5001524;28;20455;-81
2022/12/11 07:47:33;;;;;;;32.13;13.95;;;2.30;99.90;;;;;;4983399;28;20235;-80
2022/12/11 07:50:14;;;;;;;26.23;13.15;;;2.40;99.90;;;;;;4993856;28;20664;-80
2022/12/11 07:52:57;;;;;;;31.27;14.00;;;2.40;99.90;;;;;;5013151;28;20681;-80
2022/12/11 07:55:40;;;;;;;26.48;14.23;;;2.40;99.90;;;;;;5005959;28;20486;-80
2022/12/11 07:58:23;;;;;;;24.00;12.30;;;2.40;99.90;;;;;;5003137;28;20285;-80
2022/12/11 08:01:18;;;;;;;27.15;14.25;;;2.40;99.90;;;;;;5002794;28;20617;-81
2022/12/11 08:04:09;;;;;;;26.87;12.97;;;2.20;99.90;;;;;;5018281;28;20220;-82
2022/12/11 08:06:47;;;;;;;26.07;13.63;;;2.20;99.90;;;;;;5007501;28;20506;-82
2022/12/11 08:09:51;;;;;;;31.00;13.80;;;2.20;99.90;;;;;;5004394;28;20521;-81
2022/12/11 08:12:40;;;;;;;30.63;15.40;;;2.20;99.90;;;;;;5006187;28;20453;-81
2022/12/11 08:15:26;;;;;;;33.33;15.53;;;2.30;99.90;;;;;;4993218;28;20443;-80
2022/12/11 08:18:12;;;;;;;24.90;12.53;;;2.30;99.90;;;;;;4989984;28;20470;-81
2022/12/11 08:20:55;;;;;;;34.30;15.07;;;2.40;99.90;;;;;;5029026;28;20457;-80
2022/12/11 08:23:39;;;;;;;24.63;13.70;;;2.40;99.90;;;;;;5018616;28;20474;-81
2022/12/11 08:26:43;;;;;;;32.90;14.73;;;2.40;99.90;;;;;;5002583;28;20227;-81
2022/12/11 08:32:22;;;;;;;27.33;13.17;;;2.50;99.90;;;;;;4986881;28;20450;-81
2022/12/11 08:35:06;;;;;;;28.57;14.07;;;2.50;99.90;;;;;;5021670;28;20445;-81
2022/12/11 08:44:29;;;;;;;;;;;;;;;;;;;;;
2022/12/11 08:47:25;;;;;;;26.00;13.07;;;2.30;99.90;;;;;;5009379;28;20564;-81
2022/12/11 08:53:15;;;;;;;31.63;14.90;;;2.30;99.90;;;;;;4983336;28;20458;-81
2022/12/11 08:55:55;;;;;;;38.00;16.95;;;2.40;99.90;;;;;;4995625;28;20493;-80
2022/12/11 09:01:30;;;;;;;34.23;14.13;;;2.40;99.90;;;;;;5010591;28;20453;-81
2022/12/11 09:04:14;;;;;;;27.70;14.63;;;2.50;99.90;;;;;;5015681;28;20476;-81
2022/12/11 09:12:46;;;;;;;28.17;15.03;;;2.50;99.90;;;;;;4995226;28;20820;-82
2022/12/11 09:15:17;;;;;;;34.17;15.00;;;2.40;99.90;;;;;;5002866;28;20553;-80
2022/12/11 09:18:22;;;;;;;33.30;15.30;;;2.40;99.90;;;;;;4998445;28;20454;-80
2022/12/11 09:21:07;;;;;;;30.30;13.47;;;2.40;99.90;;;;;;4985023;28;20466;-80
2022/12/11 09:27:05;;;;;;;35.50;15.27;;;2.40;99.90;;;;;;4999494;28;20487;-81
2022/12/11 09:29:42;;;;;;;39.00;16.70;;;2.20;99.90;;;;;;5000500;28;20457;-80
2022/12/11 09:32:21;;;;;;;25.90;13.67;;;2.20;99.90;;;;;;4984223;28;20955;-80
2022/12/11 09:34:53;;;;;;;30.77;15.43;;;2.20;99.90;;;;;;4990925;28;20453;-80
2022/12/11 09:37:32;;;;;;;32.58;17.35;;;2.30;99.90;;;;;;4997529;28;20474;-80
2022/12/11 09:40:15;;;;;;;37.00;16.10;;;2.20;99.90;;;;;;4980544;28;20273;-80
2022/12/11 09:43:00;;;;;;;29.53;13.70;;;2.20;99.90;;;;;;4985780;28;20578;-80
2022/12/11 09:45:55;;;;;;;38.17;16.25;;;2.30;99.90;;;;;;5000621;28;20471;-80
2022/12/11 09:48:52;;;;;;;29.97;15.80;;;2.30;99.90;;;;;;5001340;28;20211;-80
2022/12/11 09:54:33;;;;;;;39.92;17.40;;;2.30;99.90;;;;;;4993319;28;20405;-80
2022/12/11 09:57:19;;;;;;;35.63;15.63;;;2.40;99.90;;;;;;4995818;28;20223;-80
2022/12/11 10:00:21;;;;;;;32.83;14.77;;;2.50;99.90;;;;;;5000805;28;20192;-80
2022/12/11 10:03:21;;;;;;;28.23;14.55;;;2.50;99.90;;;;;;5005685;28;20455;-80
2022/12/11 10:09:29;;;;;;;30.87;16.07;;;2.50;99.90;;;;;;5006347;28;20525;-80
2022/12/11 10:15:31;;;;;;;32.50;14.70;;;2.60;99.90;;;;;;4999239;28;20446;-80
2022/12/11 10:21:23;;;;;;;31.50;16.67;;;2.50;99.90;;;;;;4996299;28;20470;-80
2022/12/11 10:27:03;;;;;;;32.13;15.40;;;2.40;99.90;;;;;;5001373;28;20482;-80
2022/12/11 10:29:44;;;;;;;34.67;17.80;;;2.60;99.90;;;;;;4997704;28;20461;-80
2022/12/11 10:32:44;;;;;;;31.23;15.80;;;2.60;99.90;;;;;;5002688;28;20442;-80
2022/12/11 10:35:34;;;;;;;38.77;18.60;;;2.60;99.90;;;;;;4995118;28;20439;-80
2022/12/11 10:38:25;;;;;;;35.47;16.50;;;2.40;99.90;;;;;;5005763;28;20461;-80
2022/12/11 10:41:06;;;;;;;27.70;15.33;;;2.60;99.90;;;;;;5010303;28;20455;-80
2022/12/11 10:43:35;;;;;;;31.30;15.75;;;2.60;99.90;;;;;;5003094;28;20444;-81
2022/12/11 10:46:11;;;;;;;38.70;16.53;;;2.70;99.90;;;;;;5001198;28;20251;-80
2022/12/11 10:54:47;;;;;;;35.43;18.77;;;2.80;99.90;;;;;;4979314;28;20480;-81
2022/12/11 10:57:35;;;;;;;32.20;16.17;;;2.70;99.90;;;;;;4985029;28;20470;-81
2022/12/11 11:00:09;;;;;;;30.07;18.20;;;2.70;99.90;;;;;;4969672;28;20484;-80
2022/12/11 11:02:51;;;;;;;28.10;14.63;;;2.70;99.90;;;;;;4981453;28;20475;-81
2022/12/11 11:05:37;;;;;;;27.17;14.40;;;2.60;99.90;;;;;;4977355;28;20461;-81
2022/12/11 11:08:27;;;;;;;28.67;14.20;;;2.70;99.90;;;;;;4973460;28;20458;-80
2022/12/11 11:11:03;;;;;;;28.47;15.03;;;2.70;99.90;;;;;;4975639;28;20455;-79
2022/12/11 11:13:40;;;;;;;25.87;14.30;;;2.80;99.90;;;;;;4984937;28;20445;-79
2022/12/11 11:16:45;;;;;;;37.30;18.07;;;2.90;99.90;;;;;;4975326;28;20483;-78
2022/12/11 11:19:27;;;;;;;32.60;16.77;;;2.80;99.90;;;;;;4968813;28;20473;-79
2022/12/11 11:22:17;;;;;;;27.97;14.27;;;2.90;99.90;;;;;;4975482;28;20487;-79
2022/12/11 11:25:00;;;;;;;31.73;15.80;;;2.80;99.90;;;;;;4974070;28;20493;-79
2022/12/11 11:27:58;;;;;;;35.77;17.80;;;2.80;99.90;;;;;;4965305;28;20460;-81
2022/12/11 11:30:35;;;;;;;36.93;15.73;;;2.80;99.90;;;;;;4964104;28;20497;-80
2022/12/11 11:33:12;;;;;;;35.23;17.80;;;2.80;99.90;;;;;;4992249;28;20443;-80
2022/12/11 11:35:54;;;;;;;33.50;16.17;;;2.80;99.90;;;;;;4973479;28;20475;-80
2022/12/11 11:38:49;;;;;;;32.43;14.90;;;2.70;99.90;;;;;;4966963;28;20470;-80
2022/12/11 11:41:33;;;;;;;37.60;15.97;;;2.80;99.90;;;;;;4977167;28;20451;-78
2022/12/11 11:44:20;;;;;;;30.90;14.63;;;2.80;99.90;;;;;;4968593;28;20450;-80
2022/12/11 11:47:29;;;;;;;;;;;;;;;;;;;;;
2022/12/11 11:50:10;;;;;;;32.40;15.27;;;2.70;99.90;;;;;;4975575;28;20485;-79
2022/12/11 11:52:46;;;;;;;25.43;13.80;;;2.60;99.90;;;;;;4975035;28;20487;-79
2022/12/11 11:55:33;;;;;;;30.30;16.73;;;2.60;99.90;;;;;;4973809;28;20550;-79
2022/12/11 11:58:16;;;;;;;30.80;13.97;;;2.60;99.90;;;;;;4989237;28;20519;-78
2022/12/11 12:00:54;;;;;;;31.17;14.35;;;2.70;99.90;;;;;;4992015;28;20483;-78
2022/12/11 12:03:51;;;;;;;28.00;13.37;;;2.80;99.90;;;;;;4985090;28;20251;-78
2022/12/11 12:06:45;;;;;;;23.10;12.77;;;2.80;99.90;;;;;;4930704;28;20537;-78
2022/12/11 12:12:57;;;;;;;27.13;13.17;;;2.80;99.90;;;;;;4975547;28;20456;-78
2022/12/11 12:15:46;;;;;;;25.77;12.30;;;2.90;99.90;;;;;;4968876;28;20448;-79
2022/12/11 12:21:48;;;;;;;;;;;;;;;;;;;;;
2022/12/11 12:24:42;;;;;;;23.50;13.27;;;3.00;99.90;;;;;;4985967;28;20483;-80
2022/12/11 12:27:30;;;;;;;28.23;15.43;;;3.10;99.90;;;;;;4981744;28;20460;-78
2022/12/11 12:30:27;;;;;;;29.67;14.80;;;3.10;99.90;;;;;;4974317;28;20904;-81
2022/12/11 12:33:19;;;;;;;29.47;14.50;;;3.00;99.90;;;;;;4964647;28;20467;-80
2022/12/11 12:38:55;;;;;;;29.77;16.00;;;2.90;99.90;;;;;;4978091;28;20472;-81
2022/12/11 12:41:42;;;;;;;21.83;11.53;;;2.90;99.90;;;;;;4983319;28;20455;-79
2022/12/11 12:44:39;;;;;;;24.33;13.43;;;2.90;99.90;;;;;;4980900;28;20422;-78
2022/12/11 12:47:23;;;;;;;26.80;12.90;;;2.80;99.90;;;;;;4975686;28;20447;-79
2022/12/11 12:49:54;;;;;;;26.57;13.70;;;2.80;99.90;;;;;;4978568;28;20490;-79
2022/12/11 12:52:26;;;;;;;25.98;11.80;;;2.90;99.90;;;;;;4974517;28;20522;-79
2022/12/11 12:55:14;;;;;;;19.63;10.93;;;2.80;99.90;;;;;;4984796;28;20222;-79
2022/12/11 12:57:44;;;;;;;25.77;12.23;;;2.90;99.90;;;;;;4984992;28;20558;-78
2022/12/11 13:00:12;;;;;;;22.10;13.30;;;3.00;99.90;;;;;;4981606;28;20530;-79
2022/12/11 13:02:50;;;;;;;21.70;13.70;;;3.00;99.90;;;;;;4985790;28;20510;-79
2022/12/11 13:05:23;;;;;;;24.73;12.80;;;3.10;99.90;;;;;;4981031;28;20462;-79
2022/12/11 13:07:53;;;;;;;27.70;14.73;;;3.10;99.90;;;;;;4979500;28;20454;-79
2022/12/11 13:10:30;;;;;;;30.67;15.93;;;3.00;99.90;;;;;;4979049;28;20458;-79
2022/12/11 13:12:57;;;;;;;25.30;15.20;;;3.10;99.90;;;;;;4972730;28;20472;-79
2022/12/11 13:15:37;;;;;;;30.43;14.73;;;3.20;99.90;;;;;;4966482;28;20452;-79
2022/12/11 13:18:22;;;;;;;24.13;13.27;;;3.10;99.90;;;;;;4977180;28;20545;-79
2022/12/11 13:20:51;;;;;;;24.63;13.83;;;3.10;99.90;;;;;;4973873;28;20513;-79
2022/12/11 13:23:27;;;;;;;23.53;12.63;;;3.10;99.90;;;;;;4975292;28;20490;-79
2022/12/11 13:25:55;;;;;;;22.47;12.60;;;3.10;99.90;;;;;;4978964;28;20853;-79
2022/12/11 13:28:28;;;;;;;24.00;11.17;;;3.10;99.90;;;;;;4973230;28;20495;-80
2022/12/11 13:31:07;;;;;;;24.83;13.53;;;3.10;99.90;;;;;;4977753;28;20465;-79
2022/12/11 13:33:43;;;;;;;24.90;13.00;;;3.10;99.90;;;;;;4978950;28;20515;-81
2022/12/11 13:36:28;;;;;;;23.90;13.10;;;3.10;99.90;;;;;;4981187;28;20438;-79
2022/12/11 13:39:00;;;;;;;20.77;12.80;;;3.10;99.90;;;;;;4976906;28;20503;-79
2022/12/11 13:41:28;;;;;;;24.63;13.27;;;3.10;99.90;;;;;;4980629;28;20526;-80
2022/12/11 13:43:55;;;;;;;24.00;12.93;;;3.10;99.90;;;;;;4979230;28;20573;-80
2022/12/11 13:46:27;;;;;;;27.70;13.77;;;3.10;99.90;;;;;;4972932;28;20422;-81
2022/12/11 13:48:56;;;;;;;24.53;12.50;;;3.10;99.90;;;;;;4974893;28;20483;-80
2022/12/11 13:51:26;;;;;;;19.43;11.30;;;3.10;99.90;;;;;;4980836;28;20455;-80
2022/12/11 13:54:11;;;;;;;20.67;12.30;;;3.10;99.90;;;;;;4979128;28;20445;-80
2022/12/11 13:56:37;;;;;;;19.70;11.90;;;3.10;99.90;;;;;;4977310;28;20454;-79
2022/12/11 13:59:04;;;;;;;16.57;10.43;;;3.10;99.90;;;;;;4972081;28;20489;-81
2022/12/11 14:01:33;;;;;;;27.53;13.43;;;3.10;99.90;;;;;;4976086;28;20531;-81
2022/12/11 14:04:07;;;;;;;22.03;12.67;;;3.20;99.90;;;;;;4965797;28;21038;-80
2022/12/11 14:06:38;;;;;;;28.30;14.00;;;3.20;99.90;;;;;;4975773;28;20457;-81
2022/12/11 14:09:06;;;;;;;25.30;13.20;;;3.10;99.90;;;;;;4976617;28;20467;-84
2022/12/11 14:11:36;;;;;;;21.13;11.70;;;2.90;99.90;;;;;;4976108;28;20582;-80
2022/12/11 14:14:06;;;;;;;26.07;13.90;;;3.10;99.90;;;;;;4978413;28;20452;-79
2022/12/11 14:16:34;;;;;;;19.83;9.97;;;3.20;99.90;;;;;;4972195;28;20455;-79
2022/12/11 14:19:05;;;;;;;19.37;10.50;;;3.10;99.90;;;;;;4968476;28;20486;-82
2022/12/11 14:21:32;;;;;;;20.43;11.33;;;3.10;99.90;;;;;;4965275;28;20451;-80
2022/12/11 14:24:02;;;;;;;22.80;13.10;;;3.10;99.90;;;;;;4964635;28;20560;-80
2022/12/11 14:26:30;;;;;;;21.37;11.90;;;3.00;99.90;;;;;;4972601;28;20447;-80
2022/12/11 14:28:57;;;;;;;20.50;12.10;;;3.10;99.90;;;;;;4978053;28;20475;-80
2022/12/11 14:31:29;;;;;;;19.60;11.33;;;3.10;99.90;;;;;;4979235;28;20545;-80
2022/12/11 14:34:02;;;;;;;21.17;11.87;;;3.10;99.90;;;;;;4978899;28;20836;-79
2022/12/11 14:36:31;;;;;;;20.90;10.40;;;3.10;99.90;;;;;;4979284;28;20422;-80
2022/12/11 14:39:04;;;;;;;22.77;11.60;;;3.10;99.90;;;;;;4978291;28;20839;-80
2022/12/11 14:41:40;;;;;;;23.40;10.97;;;3.00;99.90;;;;;;4978925;28;20432;-80